Time;durP1;ratioP1;P1;durP2;ratioP2;P2;SDS_P1;SDS_P2;PMS_P1;PMS_P2;Temp;Humidity;BMP_temperature;BMP_pressure;BME280_temperature;BME280_humidity;BME280_pressure;Samples;Min_cycle;Max_cycle;Signal;HPM_P1;HPM_P2
2023/07/23 00:00:55;;;;;;;0.20;0.10;;;;;;;;;;5028378;28;20044;-83
2023/07/23 00:03:21;;;;;;;0.20;0.00;;;;;;;;;;5046703;28;20045;-83
2023/07/23 00:05:47;;;;;;;0.20;0.10;;;;;;;;;;5023942;28;20068;-84
2023/07/23 00:08:13;;;;;;;0.20;0.15;;;;;;;;;;5043674;28;20072;-82
2023/07/23 00:10:39;;;;;;;0.20;0.10;;;;;;;;;;5029084;28;20072;-83
2023/07/23 00:13:05;;;;;;;0.20;0.10;;;;;;;;;;5030548;28;20051;-83
2023/07/23 00:15:31;;;;;;;0.20;0.10;;;;;;;;;;5044086;28;20119;-85
2023/07/23 00:17:58;;;;;;;0.20;0.10;;;;;;;;;;5047155;28;20040;-85
2023/07/23 00:20:24;;;;;;;0.20;0.10;;;;;;;;;;5044647;28;20041;-85
2023/07/23 00:22:50;;;;;;;0.20;0.00;;;;;;;;;;5025849;28;20042;-81
2023/07/23 00:25:16;;;;;;;0.28;0.17;;;;;;;;;;5045959;28;20076;-85
2023/07/23 00:27:42;;;;;;;0.30;0.30;;;;;;;;;;5027356;28;20052;-84
2023/07/23 00:30:08;;;;;;;0.20;0.05;;;;;;;;;;5045845;28;20083;-83
2023/07/23 00:32:35;;;;;;;0.73;0.45;;;;;;;;;;5046248;28;20080;-83
2023/07/23 00:35:01;;;;;;;0.20;0.10;;;;;;;;;;5034463;28;20033;-83
2023/07/23 00:37:27;;;;;;;0.20;0.10;;;;;;;;;;5035992;28;20033;-83
2023/07/23 00:39:54;;;;;;;0.20;0.20;;;;;;;;;;5043477;28;20099;-82
2023/07/23 00:42:21;;;;;;;0.20;0.15;;;;;;;;;;5033729;28;20075;-82
2023/07/23 00:44:48;;;;;;;0.20;0.10;;;;;;;;;;5033963;28;20071;-84
2023/07/23 00:47:14;;;;;;;0.55;0.28;;;;;;;;;;5050123;28;20048;-84
2023/07/23 00:49:40;;;;;;;1.00;0.20;;;;;;;;;;5046762;28;20033;-83
2023/07/23 00:52:06;;;;;;;0.47;0.47;;;;;;;;;;5050697;28;20485;-83
2023/07/23 00:54:32;;;;;;;0.20;0.20;;;;;;;;;;5051018;28;20146;-83
2023/07/23 00:56:59;;;;;;;0.20;0.03;;;;;;;;;;5049321;28;20033;-84
2023/07/23 00:59:25;;;;;;;0.20;0.17;;;;;;;;;;5041087;28;20063;-84
2023/07/23 01:01:51;;;;;;;0.20;0.10;;;;;;;;;;5049858;28;20279;-85
2023/07/23 01:04:17;;;;;;;0.20;0.10;;;;;;;;;;5050328;28;20420;-83
2023/07/23 01:06:44;;;;;;;0.65;0.30;;;;;;;;;;5032371;28;20040;-84
2023/07/23 01:09:10;;;;;;;3.92;1.45;;;;;;;;;;5037078;28;20037;-84
2023/07/23 01:11:37;;;;;;;0.20;0.10;;;;;;;;;;5033388;28;20049;-83
2023/07/23 01:14:03;;;;;;;0.20;0.10;;;;;;;;;;5036216;28;20139;-84
2023/07/23 01:16:29;;;;;;;0.20;0.10;;;;;;;;;;5050239;28;20044;-83
2023/07/23 01:18:55;;;;;;;0.20;0.10;;;;;;;;;;5032821;28;20033;-83
2023/07/23 01:21:21;;;;;;;0.20;0.20;;;;;;;;;;5024748;28;20490;-84
2023/07/23 01:23:48;;;;;;;0.20;0.10;;;;;;;;;;5049175;28;20500;-86
2023/07/23 01:26:14;;;;;;;0.20;0.10;;;;;;;;;;5049525;28;20045;-82
2023/07/23 01:28:40;;;;;;;0.20;0.10;;;;;;;;;;5049352;28;20567;-84
2023/07/23 01:31:07;;;;;;;0.20;0.20;;;;;;;;;;5031358;28;20036;-84
2023/07/23 01:33:34;;;;;;;0.20;0.00;;;;;;;;;;5031539;28;20045;-83
2023/07/23 01:36:00;;;;;;;0.20;0.20;;;;;;;;;;5033823;28;20039;-86
2023/07/23 01:38:26;;;;;;;0.28;0.20;;;;;;;;;;5037934;28;20037;-85
2023/07/23 01:40:53;;;;;;;0.40;0.40;;;;;;;;;;5041517;28;20127;-83
2023/07/23 01:43:19;;;;;;;0.28;0.17;;;;;;;;;;5032790;28;20102;-86
2023/07/23 01:45:46;;;;;;;0.20;0.10;;;;;;;;;;5062617;28;20043;-86
2023/07/23 01:48:16;;;;;;;0.20;0.10;;;;;;;;;;5031222;28;20077;-85
2023/07/23 01:50:42;;;;;;;0.20;0.10;;;;;;;;;;5031033;28;20456;-86
2023/07/23 01:53:08;;;;;;;0.75;0.32;;;;;;;;;;5034938;28;20436;-85
2023/07/23 01:55:34;;;;;;;0.20;0.10;;;;;;;;;;5041164;28;20040;-87
2023/07/23 01:58:01;;;;;;;0.20;0.10;;;;;;;;;;5048104;28;20108;-84
2023/07/23 02:00:27;;;;;;;0.20;0.10;;;;;;;;;;5031285;28;20400;-85
2023/07/23 02:02:53;;;;;;;0.20;0.10;;;;;;;;;;5024574;28;20047;-85
2023/07/23 02:05:21;;;;;;;0.20;0.10;;;;;;;;;;5037401;28;20048;-84
2023/07/23 02:07:47;;;;;;;0.20;0.10;;;;;;;;;;5035151;28;20037;-84
2023/07/23 02:10:13;;;;;;;0.20;0.10;;;;;;;;;;5031443;28;20045;-87
2023/07/23 02:12:39;;;;;;;0.20;0.10;;;;;;;;;;5038291;28;20100;-83
2023/07/23 02:15:05;;;;;;;0.20;0.08;;;;;;;;;;5047817;28;20033;-83
2023/07/23 02:17:31;;;;;;;0.20;0.10;;;;;;;;;;5036385;28;20052;-85
2023/07/23 02:19:57;;;;;;;0.20;0.13;;;;;;;;;;5031685;28;20041;-86
2023/07/23 02:22:24;;;;;;;0.20;0.10;;;;;;;;;;5051878;28;20128;-84
2023/07/23 02:24:50;;;;;;;0.20;0.10;;;;;;;;;;5032074;28;20036;-85
2023/07/23 02:27:16;;;;;;;0.20;0.10;;;;;;;;;;5048236;28;20436;-86
2023/07/23 02:29:42;;;;;;;0.20;0.10;;;;;;;;;;5047977;28;20264;-85
2023/07/23 02:32:10;;;;;;;0.20;0.10;;;;;;;;;;5029611;28;20041;-86
2023/07/23 02:34:36;;;;;;;0.22;0.10;;;;;;;;;;5031217;28;20037;-85
2023/07/23 02:37:02;;;;;;;0.20;0.10;;;;;;;;;;5031685;28;20110;-85
2023/07/23 02:39:30;;;;;;;0.20;0.10;;;;;;;;;;5034407;28;20113;-86
2023/07/23 02:41:56;;;;;;;0.20;0.10;;;;;;;;;;5032330;28;20036;-84
2023/07/23 02:44:22;;;;;;;0.20;0.10;;;;;;;;;;5031347;28;20413;-86
2023/07/23 02:46:48;;;;;;;0.20;0.10;;;;;;;;;;5046924;28;20025;-86
2023/07/23 02:49:14;;;;;;;0.20;0.00;;;;;;;;;;5034817;28;20116;-88
2023/07/23 02:51:40;;;;;;;0.20;0.10;;;;;;;;;;5047607;28;20118;-87
2023/07/23 02:54:08;;;;;;;0.20;0.10;;;;;;;;;;5054629;28;20048;-87
2023/07/23 02:56:35;;;;;;;0.20;0.10;;;;;;;;;;5029292;28;20076;-85
2023/07/23 02:59:03;;;;;;;0.20;0.10;;;;;;;;;;5025119;28;20040;-87
2023/07/23 03:01:29;;;;;;;0.20;0.10;;;;;;;;;;5031745;28;20041;-86
2023/07/23 03:03:55;;;;;;;0.22;0.15;;;;;;;;;;5030626;28;20037;-86
2023/07/23 03:06:21;;;;;;;0.20;0.10;;;;;;;;;;5026617;28;20137;-86
2023/07/23 03:08:47;;;;;;;0.43;0.43;;;;;;;;;;5047619;28;20408;-85
2023/07/23 03:11:13;;;;;;;0.30;0.28;;;;;;;;;;5036241;28;20045;-87
2023/07/23 03:13:39;;;;;;;0.20;0.00;;;;;;;;;;5042477;28;20040;-86
2023/07/23 03:16:05;;;;;;;0.20;0.10;;;;;;;;;;5040331;28;20072;-87
2023/07/23 03:18:31;;;;;;;0.20;0.10;;;;;;;;;;5050568;28;20072;-85
2023/07/23 03:20:57;;;;;;;0.20;0.10;;;;;;;;;;5031059;28;20045;-85
2023/07/23 03:23:23;;;;;;;0.20;0.10;;;;;;;;;;5040472;28;20338;-85
2023/07/23 03:25:49;;;;;;;0.20;0.10;;;;;;;;;;5030776;28;20049;-85
2023/07/23 03:28:15;;;;;;;0.20;0.10;;;;;;;;;;5047473;28;20390;-84
2023/07/23 03:30:41;;;;;;;0.30;0.30;;;;;;;;;;5045652;28;20611;-84
2023/07/23 03:33:07;;;;;;;0.20;0.10;;;;;;;;;;5030422;28;20034;-85
2023/07/23 03:35:33;;;;;;;0.20;0.10;;;;;;;;;;5030930;28;20036;-85
2023/07/23 03:37:59;;;;;;;0.20;0.10;;;;;;;;;;5050767;28;20078;-84
2023/07/23 03:40:25;;;;;;;0.30;0.20;;;;;;;;;;5029675;28;20037;-85
2023/07/23 03:42:51;;;;;;;0.20;0.10;;;;;;;;;;5031058;28;20095;-85
2023/07/23 03:45:18;;;;;;;0.20;0.10;;;;;;;;;;5031052;28;20556;-84
2023/07/23 03:47:44;;;;;;;0.20;0.10;;;;;;;;;;5033493;28;20520;-89
2023/07/23 03:50:10;;;;;;;0.20;0.05;;;;;;;;;;5046336;28;20041;-84
2023/07/23 03:52:36;;;;;;;0.20;0.10;;;;;;;;;;5046842;28;20048;-83
2023/07/23 03:55:02;;;;;;;0.20;0.05;;;;;;;;;;5047213;28;20041;-87
2023/07/23 03:57:28;;;;;;;0.20;0.10;;;;;;;;;;5023165;28;20201;-87
2023/07/23 03:59:54;;;;;;;0.20;0.10;;;;;;;;;;5030307;28;20108;-87
2023/07/23 04:02:20;;;;;;;0.20;0.20;;;;;;;;;;5029842;28;20043;-84
2023/07/23 04:04:46;;;;;;;0.20;0.10;;;;;;;;;;5027977;28;20147;-85
2023/07/23 04:07:12;;;;;;;0.20;0.10;;;;;;;;;;5023740;28;20096;-87
2023/07/23 04:09:38;;;;;;;0.20;0.10;;;;;;;;;;5029481;28;20047;-89
2023/07/23 04:12:04;;;;;;;0.20;0.10;;;;;;;;;;5048258;28;20072;-87
2023/07/23 04:14:30;;;;;;;0.20;0.13;;;;;;;;;;5026067;28;20041;-85
2023/07/23 04:16:56;;;;;;;0.20;0.10;;;;;;;;;;5033297;28;20042;-84
2023/07/23 04:19:22;;;;;;;0.20;0.10;;;;;;;;;;5050692;28;20386;-84
2023/07/23 04:21:49;;;;;;;0.40;0.30;;;;;;;;;;5033235;28;20041;-85
2023/07/23 04:24:15;;;;;;;0.20;0.10;;;;;;;;;;5033205;28;20119;-85
2023/07/23 04:26:41;;;;;;;0.20;0.10;;;;;;;;;;5033488;28;20036;-85
2023/07/23 04:29:08;;;;;;;0.20;0.10;;;;;;;;;;5033790;28;20547;-85
2023/07/23 04:31:34;;;;;;;0.20;0.00;;;;;;;;;;5033465;28;20068;-85
2023/07/23 04:34:00;;;;;;;0.52;0.52;;;;;;;;;;5032492;28;20497;-85
2023/07/23 04:36:28;;;;;;;0.25;0.22;;;;;;;;;;5048958;28;20508;-84
2023/07/23 04:38:54;;;;;;;0.20;0.17;;;;;;;;;;5028602;28;20170;-84
2023/07/23 04:41:20;;;;;;;0.20;0.10;;;;;;;;;;5036529;28;20036;-85
2023/07/23 04:43:46;;;;;;;0.20;0.10;;;;;;;;;;5043161;28;20132;-84
2023/07/23 04:46:12;;;;;;;0.22;0.20;;;;;;;;;;5050434;28;20178;-84
2023/07/23 04:48:38;;;;;;;0.20;0.10;;;;;;;;;;5032739;28;20061;-85
2023/07/23 04:51:05;;;;;;;0.20;0.10;;;;;;;;;;5031430;28;20123;-85
2023/07/23 04:53:32;;;;;;;0.63;0.50;;;;;;;;;;5029893;28;20120;-85
2023/07/23 04:55:58;;;;;;;0.20;0.10;;;;;;;;;;5046853;28;20037;-85
2023/07/23 04:58:25;;;;;;;0.20;0.10;;;;;;;;;;5044944;28;20033;-85
2023/07/23 05:00:51;;;;;;;0.20;0.15;;;;;;;;;;5033302;28;20110;-85
2023/07/23 05:03:18;;;;;;;0.20;0.10;;;;;;;;;;5033079;28;20059;-86
2023/07/23 05:05:46;;;;;;;0.32;0.20;;;;;;;;;;5031573;28;20386;-86
2023/07/23 05:08:12;;;;;;;0.20;0.10;;;;;;;;;;5049646;28;20041;-84
2023/07/23 05:10:39;;;;;;;0.20;0.10;;;;;;;;;;5049907;28;20041;-86
2023/07/23 05:13:05;;;;;;;0.85;0.40;;;;;;;;;;5024616;28;20456;-85
2023/07/23 05:15:31;;;;;;;0.20;0.10;;;;;;;;;;5036539;28;20551;-85
2023/07/23 05:17:57;;;;;;;0.20;0.10;;;;;;;;;;5046285;28;20045;-84
2023/07/23 05:20:23;;;;;;;0.20;0.10;;;;;;;;;;5032797;28;20037;-85
2023/07/23 05:22:50;;;;;;;0.20;0.10;;;;;;;;;;5031853;28;20033;-85
2023/07/23 05:25:16;;;;;;;0.20;0.10;;;;;;;;;;5032366;28;20045;-86
2023/07/23 05:27:42;;;;;;;0.20;0.10;;;;;;;;;;5030396;28;20040;-86
2023/07/23 05:30:08;;;;;;;0.20;0.10;;;;;;;;;;5048608;28;20041;-85
2023/07/23 05:32:34;;;;;;;0.20;0.10;;;;;;;;;;5045879;28;20033;-85
2023/07/23 05:35:00;;;;;;;0.20;0.10;;;;;;;;;;5031818;28;20067;-87
2023/07/23 05:37:26;;;;;;;0.20;0.00;;;;;;;;;;5035248;28;20037;-85
2023/07/23 05:39:53;;;;;;;0.38;0.30;;;;;;;;;;5032031;28;20044;-86
2023/07/23 05:42:19;;;;;;;0.20;0.10;;;;;;;;;;5067712;22;20976;-84
2023/07/23 05:44:45;;;;;;;0.25;0.10;;;;;;;;;;5039950;28;20063;-82
2023/07/23 05:47:12;;;;;;;0.20;0.20;;;;;;;;;;5062851;28;20041;-81
2023/07/23 05:49:38;;;;;;;0.20;0.10;;;;;;;;;;5067195;28;20048;-83
2023/07/23 05:52:04;;;;;;;0.45;0.45;;;;;;;;;;5034429;28;20386;-81
2023/07/23 05:54:30;;;;;;;0.30;0.28;;;;;;;;;;5028345;28;20514;-81
2023/07/23 05:56:56;;;;;;;0.20;0.10;;;;;;;;;;5031571;28;20052;-81
2023/07/23 05:59:22;;;;;;;0.20;0.10;;;;;;;;;;5016291;28;20084;-82
2023/07/23 06:01:49;;;;;;;0.20;0.03;;;;;;;;;;5012959;28;20041;-83
2023/07/23 06:04:15;;;;;;;0.20;0.10;;;;;;;;;;5026273;28;20064;-81
2023/07/23 06:06:41;;;;;;;0.20;0.10;;;;;;;;;;5033474;28;20057;-84
2023/07/23 06:09:08;;;;;;;0.30;0.20;;;;;;;;;;5041001;28;20052;-84
2023/07/23 06:11:34;;;;;;;0.20;0.20;;;;;;;;;;5033533;28;20068;-81
2023/07/23 06:14:00;;;;;;;0.43;0.40;;;;;;;;;;5032333;28;20043;-83
2023/07/23 06:16:26;;;;;;;0.20;0.10;;;;;;;;;;5038444;28;20033;-83
2023/07/23 06:18:52;;;;;;;0.20;0.10;;;;;;;;;;5022802;28;20034;-83
2023/07/23 06:21:19;;;;;;;0.20;0.10;;;;;;;;;;5035523;28;20413;-82
2023/07/23 06:23:45;;;;;;;0.20;0.10;;;;;;;;;;5032820;28;20070;-83
2023/07/23 06:26:11;;;;;;;0.20;0.10;;;;;;;;;;5030516;28;20041;-83
2023/07/23 06:28:37;;;;;;;0.20;0.10;;;;;;;;;;5014565;28;20052;-84
2023/07/23 06:31:03;;;;;;;0.30;0.30;;;;;;;;;;5027563;28;20037;-84
2023/07/23 06:33:29;;;;;;;0.20;0.10;;;;;;;;;;5031282;28;20124;-84
2023/07/23 06:35:55;;;;;;;0.20;0.10;;;;;;;;;;5036346;28;20056;-84
2023/07/23 06:38:21;;;;;;;0.20;0.20;;;;;;;;;;5030079;28;20041;-85
2023/07/23 06:40:53;;;;;;;0.57;0.45;;;;;;;;;;5025156;28;20049;-83
2023/07/23 06:43:19;;;;;;;;;;;;;;;;;;5034228;28;20403;-84
2023/07/23 06:45:46;;;;;;;0.20;0.10;;;;;;;;;;5030182;28;19963;-86
2023/07/23 06:48:13;;;;;;;0.20;0.10;;;;;;;;;;5025407;28;20080;-84
2023/07/23 06:50:39;;;;;;;0.35;0.10;;;;;;;;;;5025073;28;20069;-83
2023/07/23 06:53:05;;;;;;;0.52;0.38;;;;;;;;;;5014913;28;20038;-85
2023/07/23 06:55:32;;;;;;;0.55;0.30;;;;;;;;;;5019309;28;20101;-86
2023/07/23 06:57:57;;;;;;;0.20;0.10;;;;;;;;;;5014312;28;20048;-84
2023/07/23 07:00:31;;;;;;;0.30;0.30;;;;;;;;;;5017156;28;20124;-85
2023/07/23 07:03:00;;;;;;;0.20;0.10;;;;;;;;;;5027256;28;20041;-84
2023/07/23 07:05:27;;;;;;;0.20;0.03;;;;;;;;;;5015920;28;20099;-84
2023/07/23 07:07:53;;;;;;;0.30;0.10;;;;;;;;;;5032586;28;20048;-85
2023/07/23 07:10:20;;;;;;;0.20;0.10;;;;;;;;;;5023298;28;20060;-86
2023/07/23 07:12:46;;;;;;;0.20;0.00;;;;;;;;;;5022239;28;20033;-85
2023/07/23 07:15:12;;;;;;;0.63;0.40;;;;;;;;;;5029916;28;20040;-84
2023/07/23 07:17:38;;;;;;;0.20;0.20;;;;;;;;;;5024030;28;20472;-84
2023/07/23 07:20:05;;;;;;;0.20;0.10;;;;;;;;;;5015211;28;20099;-83
2023/07/23 07:22:31;;;;;;;0.57;0.40;;;;;;;;;;5015610;28;20413;-85
2023/07/23 07:24:57;;;;;;;0.20;0.10;;;;;;;;;;5033497;28;20426;-84
2023/07/23 07:27:25;;;;;;;0.20;0.20;;;;;;;;;;5016409;28;20529;-85
2023/07/23 07:29:51;;;;;;;0.20;0.10;;;;;;;;;;5032892;28;20082;-85
2023/07/23 07:32:17;;;;;;;0.20;0.20;;;;;;;;;;5024375;28;20055;-86
2023/07/23 07:34:43;;;;;;;0.20;0.20;;;;;;;;;;5009892;28;20471;-84
2023/07/23 07:37:09;;;;;;;0.40;0.40;;;;;;;;;;5031673;28;20040;-84
2023/07/23 07:39:36;;;;;;;0.30;0.30;;;;;;;;;;5015308;28;20136;-84
2023/07/23 07:42:02;;;;;;;0.20;0.10;;;;;;;;;;5033855;28;20032;-83
2023/07/23 07:44:29;;;;;;;0.20;0.10;;;;;;;;;;5017321;28;20033;-84
2023/07/23 07:46:55;;;;;;;0.20;0.10;;;;;;;;;;5024526;28;20063;-85
2023/07/23 07:49:21;;;;;;;0.20;0.20;;;;;;;;;;5013454;28;20432;-84
2023/07/23 07:51:48;;;;;;;0.20;0.10;;;;;;;;;;5037458;28;20041;-85
2023/07/23 07:54:14;;;;;;;0.20;0.15;;;;;;;;;;5022733;28;20045;-86
2023/07/23 07:56:42;;;;;;;0.30;0.30;;;;;;;;;;5034714;28;20422;-83
2023/07/23 07:59:08;;;;;;;0.65;0.47;;;;;;;;;;5027875;28;20108;-82
2023/07/23 08:01:34;;;;;;;0.20;0.20;;;;;;;;;;5027621;28;20041;-83
2023/07/23 08:04:02;;;;;;;0.40;0.40;;;;;;;;;;5051775;28;20317;-82
2023/07/23 08:06:28;;;;;;;0.20;0.10;;;;;;;;;;5017486;28;20044;-85
2023/07/23 08:08:58;;;;;;;0.20;0.10;;;;;;;;;;5020869;28;20049;-82
2023/07/23 08:11:25;;;;;;;0.90;0.68;;;;;;;;;;5021341;28;20075;-84
2023/07/23 08:13:51;;;;;;;0.20;0.10;;;;;;;;;;5018515;28;20068;-82
2023/07/23 08:16:20;;;;;;;0.20;0.20;;;;;;;;;;5033075;28;20045;-86
2023/07/23 08:18:46;;;;;;;0.38;0.32;;;;;;;;;;5014275;28;20497;-82
2023/07/23 08:21:13;;;;;;;0.20;0.10;;;;;;;;;;5031906;28;20526;-84
2023/07/23 08:23:39;;;;;;;0.20;0.20;;;;;;;;;;5039396;28;20037;-82
2023/07/23 08:26:05;;;;;;;0.20;0.10;;;;;;;;;;5021124;28;20531;-83
2023/07/23 08:28:36;;;;;;;0.20;0.10;;;;;;;;;;5033654;28;20049;-83
2023/07/23 08:31:02;;;;;;;0.22;0.17;;;;;;;;;;5018742;28;20122;-84
2023/07/23 08:33:29;;;;;;;0.20;0.10;;;;;;;;;;5033714;28;20514;-83
2023/07/23 08:35:59;;;;;;;0.20;0.20;;;;;;;;;;5018700;28;20037;-83
2023/07/23 08:38:26;;;;;;;0.20;0.10;;;;;;;;;;5028905;28;20044;-84
2023/07/23 08:41:03;;;;;;;0.28;0.22;;;;;;;;;;5017495;28;20490;-84
2023/07/23 08:43:45;;;;;;;0.38;0.30;;;;;;;;;;5026352;28;20045;-86
2023/07/23 08:46:27;;;;;;;0.28;0.10;;;;;;;;;;5036640;28;20440;-83
2023/07/23 08:48:53;;;;;;;0.20;0.10;;;;;;;;;;5020422;28;20040;-83
2023/07/23 08:51:19;;;;;;;0.20;0.20;;;;;;;;;;5014787;28;20052;-83
2023/07/23 08:53:46;;;;;;;0.20;0.10;;;;;;;;;;5019312;28;20115;-83
2023/07/23 08:56:12;;;;;;;0.20;0.10;;;;;;;;;;5035745;28;20374;-82
2023/07/23 08:58:38;;;;;;;0.20;0.10;;;;;;;;;;5019717;28;20500;-86
2023/07/23 09:01:06;;;;;;;0.20;0.10;;;;;;;;;;5014695;28;20169;-84
2023/07/23 09:03:34;;;;;;;0.20;0.10;;;;;;;;;;5020596;28;20075;-80
2023/07/23 09:06:00;;;;;;;0.20;0.10;;;;;;;;;;5036424;28;20043;-84
2023/07/23 09:08:26;;;;;;;0.20;0.10;;;;;;;;;;5035251;28;20037;-84
2023/07/23 09:10:52;;;;;;;0.20;0.10;;;;;;;;;;5035634;28;20037;-86
2023/07/23 09:13:18;;;;;;;0.30;0.10;;;;;;;;;;5033605;28;20044;-82
2023/07/23 09:15:53;;;;;;;0.20;0.10;;;;;;;;;;5042389;28;20033;-85
2023/07/23 09:18:19;;;;;;;0.30;0.30;;;;;;;;;;5009130;28;20048;-84
2023/07/23 09:20:52;;;;;;;0.20;0.10;;;;;;;;;;5018127;28;20107;-85
2023/07/23 09:23:18;;;;;;;;;;;;;;;;;;5031139;28;20059;-84
2023/07/23 09:25:44;;;;;;;0.20;0.10;;;;;;;;;;5034771;28;19921;-84
2023/07/23 09:28:23;;;;;;;0.20;0.10;;;;;;;;;;5034785;28;20687;-84
2023/07/23 09:30:53;;;;;;;0.20;0.20;;;;;;;;;;5019313;28;20079;-86
2023/07/23 09:33:22;;;;;;;0.20;0.10;;;;;;;;;;5019010;28;20072;-84
2023/07/23 09:35:53;;;;;;;0.20;0.20;;;;;;;;;;5015259;28;20037;-84
2023/07/23 09:38:23;;;;;;;0.20;0.10;;;;;;;;;;5035042;28;20124;-85
2023/07/23 09:40:51;;;;;;;0.20;0.10;;;;;;;;;;5025130;28;20494;-82
2023/07/23 09:43:17;;;;;;;0.20;0.10;;;;;;;;;;5034894;28;20049;-83
2023/07/23 09:45:43;;;;;;;0.20;0.10;;;;;;;;;;5049164;28;20033;-84
2023/07/23 09:48:14;;;;;;;0.20;0.10;;;;;;;;;;5032632;28;20183;-85
2023/07/23 09:50:43;;;;;;;0.20;0.10;;;;;;;;;;5036618;28;20110;-85
2023/07/23 09:53:15;;;;;;;0.20;0.10;;;;;;;;;;5016701;28;20041;-83
2023/07/23 09:55:42;;;;;;;0.43;0.43;;;;;;;;;;5011927;28;20067;-84
2023/07/23 09:58:09;;;;;;;0.20;0.10;;;;;;;;;;5018929;28;20033;-82
2023/07/23 10:00:42;;;;;;;0.20;0.10;;;;;;;;;;5016371;28;20036;-82
2023/07/23 10:03:17;;;;;;;0.55;0.10;;;;;;;;;;5041628;28;20049;-84
2023/07/23 10:05:43;;;;;;;0.40;0.32;;;;;;;;;;5019663;28;20033;-83
2023/07/23 10:08:10;;;;;;;0.20;0.10;;;;;;;;;;5035250;28;20059;-83
2023/07/23 10:10:36;;;;;;;0.20;0.10;;;;;;;;;;5026857;28;20033;-84
2023/07/23 10:13:02;;;;;;;0.22;0.13;;;;;;;;;;5030903;28;20036;-84
2023/07/23 10:15:32;;;;;;;0.20;0.10;;;;;;;;;;5019956;28;20483;-82
2023/07/23 10:18:00;;;;;;;0.20;0.10;;;;;;;;;;5031619;28;20033;-86
2023/07/23 10:20:32;;;;;;;0.20;0.10;;;;;;;;;;5033741;28;20045;-85
2023/07/23 10:23:04;;;;;;;0.20;0.15;;;;;;;;;;5025645;28;20037;-86
2023/07/23 10:25:31;;;;;;;0.52;0.20;;;;;;;;;;5017046;28;20413;-83
2023/07/23 10:28:01;;;;;;;0.20;0.10;;;;;;;;;;5036986;28;20048;-84
2023/07/23 10:30:28;;;;;;;0.20;0.10;;;;;;;;;;5017351;28;20040;-82
2023/07/23 10:33:09;;;;;;;0.20;0.10;;;;;;;;;;5034363;28;20095;-83
2023/07/23 10:35:58;;;;;;;0.55;0.20;;;;;;;;;;5035688;28;20060;-84
2023/07/23 10:38:32;;;;;;;0.20;0.10;;;;;;;;;;5032077;28;20784;-85
2023/07/23 10:40:59;;;;;;;0.20;0.00;;;;;;;;;;5015463;28;20131;-83
2023/07/23 10:43:37;;;;;;;0.63;0.63;;;;;;;;;;5035124;28;20051;-83
2023/07/23 10:46:03;;;;;;;0.32;0.30;;;;;;;;;;5020116;28;20118;-84
2023/07/23 10:48:49;;;;;;;0.20;0.10;;;;;;;;;;5027123;28;20056;-84
2023/07/23 10:51:25;;;;;;;0.20;0.10;;;;;;;;;;5013224;28;20048;-82
2023/07/23 10:53:57;;;;;;;0.30;0.30;;;;;;;;;;5030254;28;20119;-82
2023/07/23 10:56:28;;;;;;;0.20;0.10;;;;;;;;;;5018651;28;20056;-84
2023/07/23 10:58:58;;;;;;;0.20;0.05;;;;;;;;;;5018346;28;20445;-84
2023/07/23 11:01:26;;;;;;;0.20;0.20;;;;;;;;;;5032304;28;20047;-85
2023/07/23 11:03:54;;;;;;;0.20;0.10;;;;;;;;;;5011472;28;20044;-83
2023/07/23 11:06:27;;;;;;;0.20;0.10;;;;;;;;;;5018025;28;20049;-85
2023/07/23 11:08:55;;;;;;;0.20;0.10;;;;;;;;;;5017210;28;20047;-83
2023/07/23 11:11:29;;;;;;;0.20;0.10;;;;;;;;;;5016207;28;20418;-84
2023/07/23 11:13:55;;;;;;;0.20;0.10;;;;;;;;;;5032631;28;20052;-84
2023/07/23 11:16:21;;;;;;;0.20;0.17;;;;;;;;;;5015825;28;20086;-82
2023/07/23 11:18:47;;;;;;;0.20;0.10;;;;;;;;;;5014767;28;20029;-84
2023/07/23 11:21:14;;;;;;;0.20;0.10;;;;;;;;;;5029863;28;20506;-82
2023/07/23 11:23:40;;;;;;;0.20;0.10;;;;;;;;;;5014772;28;20509;-84
2023/07/23 11:26:06;;;;;;;0.20;0.10;;;;;;;;;;5031770;28;20064;-82
2023/07/23 11:28:35;;;;;;;0.75;0.30;;;;;;;;;;5022285;28;20056;-83
2023/07/23 11:31:01;;;;;;;0.20;0.20;;;;;;;;;;5017175;28;20498;-85
2023/07/23 11:33:30;;;;;;;0.20;0.10;;;;;;;;;;5031426;28;20033;-83
2023/07/23 11:36:02;;;;;;;0.20;0.10;;;;;;;;;;5016743;28;20072;-84
2023/07/23 11:38:28;;;;;;;0.20;0.10;;;;;;;;;;5050768;28;20044;-83
2023/07/23 11:41:00;;;;;;;0.20;0.20;;;;;;;;;;5030533;28;20492;-85
2023/07/23 11:43:27;;;;;;;0.45;0.45;;;;;;;;;;5062746;22;20563;-84
2023/07/23 11:45:53;;;;;;;0.38;0.38;;;;;;;;;;5056976;28;20036;-84
2023/07/23 11:48:20;;;;;;;2.75;0.65;;;;;;;;;;5074422;28;20093;-84
2023/07/23 11:50:47;;;;;;;0.20;0.20;;;;;;;;;;5055112;28;20499;-84
2023/07/23 11:53:13;;;;;;;0.20;0.10;;;;;;;;;;5069018;28;20040;-85
2023/07/23 11:55:39;;;;;;;0.20;0.00;;;;;;;;;;5077259;28;20484;-83
2023/07/23 11:58:05;;;;;;;0.30;0.17;;;;;;;;;;5057167;28;20123;-85
2023/07/23 12:00:35;;;;;;;0.20;0.10;;;;;;;;;;5054443;28;20159;-85
2023/07/23 12:03:03;;;;;;;0.55;0.55;;;;;;;;;;5053313;28;20052;-83
2023/07/23 12:05:29;;;;;;;0.20;0.10;;;;;;;;;;5059445;28;20051;-84
2023/07/23 12:07:56;;;;;;;0.30;0.30;;;;;;;;;;5073328;28;20059;-84
2023/07/23 12:10:25;;;;;;;0.20;0.10;;;;;;;;;;5052592;28;20090;-85
2023/07/23 12:12:51;;;;;;;0.20;0.10;;;;;;;;;;5052830;28;20072;-84
2023/07/23 12:15:18;;;;;;;0.20;0.05;;;;;;;;;;5056371;28;20073;-84
2023/07/23 12:17:45;;;;;;;0.20;0.10;;;;;;;;;;5058413;28;20035;-83
2023/07/23 12:20:16;;;;;;;0.20;0.20;;;;;;;;;;5076485;28;20044;-84
2023/07/23 12:22:55;;;;;;;1.38;0.20;;;;;;;;;;5058968;28;20448;-82
2023/07/23 12:25:21;;;;;;;0.20;0.10;;;;;;;;;;5060389;28;20044;-83
2023/07/23 12:27:47;;;;;;;0.20;0.10;;;;;;;;;;5073856;28;20048;-84
2023/07/23 12:30:13;;;;;;;0.20;0.10;;;;;;;;;;5054994;28;20036;-86
2023/07/23 12:32:40;;;;;;;0.20;0.10;;;;;;;;;;5073817;28;20028;-83
2023/07/23 12:35:07;;;;;;;0.20;0.10;;;;;;;;;;5063695;28;20036;-84
2023/07/23 12:37:34;;;;;;;0.20;0.10;;;;;;;;;;5059062;28;20028;-85
2023/07/23 12:40:04;;;;;;;0.20;0.10;;;;;;;;;;5061087;28;20036;-84
2023/07/23 12:42:31;;;;;;;0.50;0.13;;;;;;;;;;5059626;28;20404;-84
2023/07/23 12:44:57;;;;;;;0.20;0.10;;;;;;;;;;5057459;28;20071;-83
2023/07/23 12:47:23;;;;;;;0.20;0.10;;;;;;;;;;5060171;28;20044;-84
2023/07/23 12:49:50;;;;;;;0.20;0.10;;;;;;;;;;5077418;28;20062;-83
2023/07/23 12:52:19;;;;;;;0.20;0.20;;;;;;;;;;5060086;28;20071;-84
2023/07/23 12:54:45;;;;;;;0.20;0.17;;;;;;;;;;5073166;28;20051;-83
2023/07/23 12:57:12;;;;;;;0.30;0.20;;;;;;;;;;5060696;28;20314;-84
2023/07/23 12:59:38;;;;;;;0.20;0.10;;;;;;;;;;5075316;28;20126;-84
2023/07/23 13:02:05;;;;;;;0.20;0.20;;;;;;;;;;5059804;28;20127;-83
2023/07/23 13:04:31;;;;;;;0.40;0.40;;;;;;;;;;5074821;28;20188;-84
2023/07/23 13:06:57;;;;;;;0.20;0.13;;;;;;;;;;5067763;28;20039;-84
2023/07/23 13:09:23;;;;;;;0.20;0.10;;;;;;;;;;5060084;28;20036;-85
2023/07/23 13:11:49;;;;;;;0.20;0.10;;;;;;;;;;5076518;28;20093;-83
2023/07/23 13:14:16;;;;;;;0.20;0.10;;;;;;;;;;5078951;28;20526;-84
2023/07/23 13:16:42;;;;;;;0.20;0.10;;;;;;;;;;5075455;28;20060;-86
2023/07/23 13:19:08;;;;;;;0.20;0.10;;;;;;;;;;5072694;28;20039;-85
2023/07/23 13:21:37;;;;;;;0.30;0.22;;;;;;;;;;5060160;28;20040;-86
2023/07/23 13:24:03;;;;;;;0.30;0.30;;;;;;;;;;5074504;28;20536;-85
2023/07/23 13:26:29;;;;;;;0.20;0.10;;;;;;;;;;5058956;28;20044;-86
2023/07/23 13:28:55;;;;;;;0.20;0.10;;;;;;;;;;5060197;28;20314;-84
2023/07/23 13:31:21;;;;;;;0.20;0.20;;;;;;;;;;5079451;28;20082;-84
2023/07/23 13:33:47;;;;;;;0.20;0.10;;;;;;;;;;5075357;28;20040;-83
2023/07/23 13:36:13;;;;;;;0.20;0.10;;;;;;;;;;5071952;28;20413;-84
2023/07/23 13:38:39;;;;;;;0.20;0.10;;;;;;;;;;5073945;28;20088;-84
2023/07/23 13:41:07;;;;;;;0.20;0.10;;;;;;;;;;5052449;28;20127;-83
2023/07/23 13:43:33;;;;;;;0.20;0.20;;;;;;;;;;5081434;28;20504;-83
2023/07/23 13:45:59;;;;;;;0.20;0.20;;;;;;;;;;5059775;28;20124;-85
2023/07/23 13:48:25;;;;;;;0.20;0.10;;;;;;;;;;5052973;28;20118;-84
2023/07/23 13:50:51;;;;;;;0.20;0.10;;;;;;;;;;5055780;28;20032;-83
2023/07/23 13:53:18;;;;;;;0.38;0.30;;;;;;;;;;5055941;28;20082;-84
2023/07/23 13:55:44;;;;;;;0.20;0.10;;;;;;;;;;5063523;28;20040;-82
2023/07/23 13:58:10;;;;;;;0.20;0.20;;;;;;;;;;5072224;28;20567;-83
2023/07/23 14:00:36;;;;;;;0.20;0.10;;;;;;;;;;5055179;28;20492;-84
2023/07/23 14:03:03;;;;;;;0.20;0.10;;;;;;;;;;5055873;28;20093;-84
2023/07/23 14:05:29;;;;;;;0.20;0.20;;;;;;;;;;5056160;28;20040;-85
2023/07/23 14:07:57;;;;;;;0.40;0.40;;;;;;;;;;5056063;28;20450;-86
2023/07/23 14:10:26;;;;;;;0.20;0.10;;;;;;;;;;5055165;28;20046;-85
2023/07/23 14:12:52;;;;;;;0.32;0.30;;;;;;;;;;5070832;28;20486;-85
2023/07/23 14:15:18;;;;;;;0.32;0.32;;;;;;;;;;5076050;28;20432;-84
2023/07/23 14:17:44;;;;;;;0.30;0.10;;;;;;;;;;5055036;28;20484;-85
2023/07/23 14:20:10;;;;;;;0.20;0.20;;;;;;;;;;5071850;28;20534;-85
2023/07/23 14:22:36;;;;;;;0.75;0.40;;;;;;;;;;5071030;28;20439;-84
2023/07/23 14:25:02;;;;;;;0.40;0.40;;;;;;;;;;5075180;28;20037;-85
2023/07/23 14:27:37;;;;;;;0.20;0.10;;;;;;;;;;5066308;28;20041;-83
2023/07/23 14:30:13;;;;;;;0.43;0.43;;;;;;;;;;5068426;28;20519;-85
2023/07/23 14:32:48;;;;;;;0.20;0.17;;;;;;;;;;5070983;28;20032;-84
2023/07/23 14:35:17;;;;;;;0.52;0.52;;;;;;;;;;5072012;28;20043;-85
2023/07/23 14:37:43;;;;;;;0.20;0.10;;;;;;;;;;5056821;28;20467;-84
2023/07/23 14:40:17;;;;;;;0.20;0.20;;;;;;;;;;5054555;28;20521;-86
2023/07/23 14:42:43;;;;;;;0.85;0.55;;;;;;;;;;5077932;28;20039;-87